Terminal Aerodrome Forecast
Issued by NWS

Home | Current Version | Previous Version | Text Only | Print | Product List | Glossary On
Versions: 1 2 3 4 5 6 7 8 9 10 11 12 13 14 15 16 17 18 19 20
000
FTUS43 KMQT 202300
TAFSAW
TAF
KSAW 202338Z 2100/2124 32007KT P6SM SCT050
     FM210300 02007KT P6SM OVC010
     FM210500 02007KT 6SM BR OVC006
     FM211400 01014G22KT P6SM OVC010
     FM212000 01014G22KT P6SM SCT020
      AMD LTD TO CLD VIS AND WIND 2102/2110=

USA.gov is the U.S. government's official web portal to all federal, state and local government web resources and services.